createdAt,value
2017-10-19T00:01:57.762Z,17.92
2017-10-19T00:04:24.459Z,18.25
2017-10-19T00:06:51.769Z,21.40
2017-10-19T00:09:18.572Z,19.35
2017-10-19T00:11:45.091Z,22.10
2017-10-19T00:14:12.582Z,18.95
2017-10-19T00:16:38.806Z,18.00
2017-10-19T00:19:06.551Z,21.67
2017-10-19T00:21:34.110Z,23.80
2017-10-19T00:24:00.778Z,22.85
2017-10-19T00:26:28.106Z,21.37
2017-10-19T00:28:55.189Z,22.67
2017-10-19T00:31:21.375Z,22.05
2017-10-19T00:33:48.316Z,21.17
2017-10-19T00:36:15.377Z,22.30
2017-10-19T00:38:41.611Z,17.67
2017-10-19T00:41:07.825Z,19.85
2017-10-19T00:43:34.048Z,18.25
2017-10-19T00:46:01.425Z,18.05
2017-10-19T00:48:27.734Z,21.92
2017-10-19T00:50:54.565Z,23.08
2017-10-19T00:53:22.929Z,23.55
2017-10-19T00:55:49.826Z,24.00
2017-10-19T00:58:16.259Z,23.08
2017-10-19T01:00:44.432Z,22.15
2017-10-19T01:03:11.651Z,20.70
2017-10-19T01:05:38.978Z,23.58
2017-10-19T01:08:07.410Z,22.50
2017-10-19T01:10:34.634Z,17.95
2017-10-19T01:13:01.476Z,16.50
2017-10-19T01:15:28.713Z,23.15
2017-10-19T01:17:56.255Z,21.48
2017-10-19T01:20:23.475Z,23.33
2017-10-19T01:22:50.199Z,22.92
2017-10-19T01:25:17.082Z,17.00
2017-10-19T01:27:43.477Z,22.00
2017-10-19T01:30:11.592Z,21.37
2017-10-19T01:32:38.791Z,17.27
2017-10-19T01:35:05.650Z,19.40
2017-10-19T01:37:31.911Z,20.65
2017-10-19T01:39:59.208Z,23.33
2017-10-19T01:42:25.471Z,20.75
2017-10-19T01:44:52.613Z,16.83
2017-10-19T01:47:19.260Z,20.73
2017-10-19T01:49:58.056Z,25.45
2017-10-19T01:52:24.943Z,25.00
2017-10-19T01:54:52.227Z,27.58
2017-10-19T01:57:19.754Z,16.12
2017-10-19T01:59:46.571Z,19.58
2017-10-19T02:02:12.856Z,18.98
2017-10-19T02:04:40.835Z,20.35
2017-10-19T02:07:07.973Z,23.50
2017-10-19T02:09:34.935Z,15.50
2017-10-19T02:12:01.807Z,24.75
2017-10-19T02:14:28.572Z,21.85
2017-10-19T02:16:55.367Z,18.85
2017-10-19T02:19:22.090Z,16.37
2017-10-19T02:21:48.344Z,17.00
2017-10-19T02:24:14.610Z,17.67
2017-10-19T02:26:40.910Z,17.17
2017-10-19T02:29:07.399Z,14.35
2017-10-19T02:31:34.970Z,18.85
2017-10-19T02:34:01.889Z,22.25
2017-10-19T02:36:29.380Z,18.27
2017-10-19T02:38:56.173Z,21.48
2017-10-19T02:41:23.399Z,17.58
2017-10-19T02:43:50.156Z,15.52
2017-10-19T02:46:16.727Z,15.73
2017-10-19T02:48:44.064Z,15.90
2017-10-19T02:51:12.508Z,13.18
2017-10-19T02:53:39.213Z,16.30
2017-10-19T02:56:06.409Z,10.57
2017-10-19T02:58:33.398Z,14.25
2017-10-19T03:01:01.377Z,15.82
2017-10-19T03:03:27.607Z,11.70
2017-10-19T03:05:54.272Z,14.70
2017-10-19T03:08:20.679Z,10.88
2017-10-19T03:10:48.298Z,19.75
2017-10-19T03:13:14.574Z,16.90
2017-10-19T03:15:41.014Z,17.25
2017-10-19T03:18:07.886Z,20.35
2017-10-19T03:20:35.012Z,22.30
2017-10-19T03:23:01.982Z,19.00
2017-10-19T03:25:29.412Z,23.10
2017-10-19T03:27:57.040Z,15.52
2017-10-19T03:30:25.335Z,19.98
2017-10-19T03:32:52.478Z,22.70
2017-10-19T03:35:18.954Z,19.87
2017-10-19T03:37:45.179Z,15.15
2017-10-19T03:40:11.659Z,20.75
2017-10-19T03:42:38.742Z,19.87
2017-10-19T03:45:04.972Z,25.12
2017-10-19T03:47:31.436Z,17.05
2017-10-19T03:49:58.707Z,17.25
2017-10-19T03:52:24.914Z,14.40
2017-10-19T03:54:51.741Z,18.48
2017-10-19T03:57:17.996Z,13.40
2017-10-19T03:59:44.693Z,18.25
2017-10-19T04:02:10.948Z,18.23
2017-10-19T04:04:38.100Z,16.27
2017-10-19T04:07:06.339Z,15.05
2017-10-19T04:09:33.157Z,15.20
2017-10-19T04:12:01.526Z,16.10
2017-10-19T04:14:28.484Z,18.08
2017-10-19T04:16:55.303Z,21.30
2017-10-19T04:19:23.686Z,19.80
2017-10-19T04:21:51.270Z,23.42
2017-10-19T04:24:18.261Z,17.67
2017-10-19T04:26:44.729Z,20.27
2017-10-19T04:29:12.341Z,22.48
2017-10-19T04:31:38.540Z,19.92
2017-10-19T04:34:05.101Z,20.67
2017-10-19T04:36:33.122Z,25.10
2017-10-19T04:39:00.565Z,21.05
2017-10-19T04:41:28.481Z,21.00
2017-10-19T04:43:55.296Z,19.45
2017-10-19T04:46:22.263Z,20.90
2017-10-19T04:48:48.476Z,17.90
2017-10-19T04:51:16.289Z,20.77
2017-10-19T04:53:43.477Z,20.75
2017-10-19T04:56:10.509Z,18.52
2017-10-19T04:58:40.190Z,18.00
2017-10-19T05:01:06.435Z,14.90
2017-10-19T05:03:32.956Z,19.15
2017-10-19T05:06:01.299Z,17.60
2017-10-19T05:08:27.723Z,16.90
2017-10-19T05:10:54.708Z,16.08
2017-10-19T05:13:21.578Z,17.08
2017-10-19T05:15:49.044Z,15.68
2017-10-19T05:18:16.663Z,17.42
2017-10-19T05:20:44.794Z,17.67
2017-10-19T05:23:11.752Z,15.32
2017-10-19T05:25:38.693Z,19.98
2017-10-19T05:28:05.942Z,20.42
2017-10-19T05:30:32.166Z,20.12
2017-10-19T05:32:58.382Z,16.80
2017-10-19T05:35:25.352Z,17.90
2017-10-19T05:37:51.551Z,20.00
2017-10-19T05:40:18.506Z,19.85
2017-10-19T05:42:45.458Z,20.30
2017-10-19T05:45:11.832Z,20.65
2017-10-19T05:47:40.171Z,19.00
2017-10-19T05:50:07.004Z,17.65
2017-10-19T05:52:33.540Z,18.80
2017-10-19T05:54:59.776Z,12.65
2017-10-19T05:57:26.641Z,17.33
2017-10-19T05:59:52.993Z,13.62
2017-10-19T06:02:19.454Z,18.40
2017-10-19T06:04:47.612Z,16.55
2017-10-19T06:07:14.353Z,14.95
2017-10-19T06:09:40.831Z,17.92
2017-10-19T06:12:07.863Z,17.05
2017-10-19T06:14:34.209Z,18.80
2017-10-19T06:17:01.248Z,16.40
2017-10-19T06:19:28.260Z,15.60
2017-10-19T06:21:55.239Z,14.55
2017-10-19T06:24:21.676Z,13.30
2017-10-19T06:26:48.731Z,14.38
2017-10-19T06:29:15.005Z,16.23
2017-10-19T06:31:41.776Z,15.35
2017-10-19T06:34:08.745Z,14.63
2017-10-19T06:36:35.196Z,13.30
2017-10-19T06:39:02.265Z,13.35
2017-10-19T06:41:29.839Z,13.00
2017-10-19T06:43:57.538Z,14.38
2017-10-19T06:46:24.306Z,14.20
2017-10-19T06:48:50.537Z,15.93
2017-10-19T06:51:16.794Z,13.60
2017-10-19T06:53:43.045Z,16.05
2017-10-19T06:56:10.573Z,14.75
2017-10-19T06:58:37.388Z,19.65
2017-10-19T07:01:04.410Z,17.83
2017-10-19T07:03:30.664Z,19.62
2017-10-19T07:05:57.867Z,17.00
2017-10-19T07:08:25.784Z,15.82
2017-10-19T07:10:52.979Z,15.35
2017-10-19T07:13:19.954Z,18.37
2017-10-19T07:15:46.407Z,16.60
2017-10-19T07:18:13.036Z,14.05
2017-10-19T07:20:39.502Z,17.83
2017-10-19T07:23:06.955Z,17.45
2017-10-19T07:25:35.180Z,18.08
2017-10-19T07:28:01.413Z,19.77
2017-10-19T07:30:28.277Z,18.77
2017-10-19T07:32:55.289Z,15.43
2017-10-19T07:35:22.222Z,15.80
2017-10-19T07:37:50.689Z,14.65
2017-10-19T07:40:17.767Z,15.57
2017-10-19T07:42:44.827Z,15.68
2017-10-19T07:45:11.141Z,18.25
2017-10-19T07:47:39.073Z,16.02
2017-10-19T07:50:05.836Z,15.55
2017-10-19T07:52:33.072Z,16.95
2017-10-19T07:55:01.486Z,18.15
2017-10-19T07:57:27.719Z,17.40
2017-10-19T07:59:53.915Z,16.23
2017-10-19T08:02:20.149Z,16.90
2017-10-19T08:04:47.107Z,14.95
2017-10-19T08:07:14.047Z,16.67
2017-10-19T08:09:41.009Z,17.17
2017-10-19T08:12:07.268Z,16.95
2017-10-19T08:14:34.874Z,16.70
2017-10-19T08:17:02.391Z,12.80
2017-10-19T08:19:29.720Z,15.13
2017-10-19T08:21:57.112Z,15.10
2017-10-19T08:24:24.785Z,13.90
2017-10-19T08:26:51.890Z,16.90
2017-10-19T08:29:18.209Z,13.95
2017-10-19T08:31:45.902Z,14.87
2017-10-19T08:34:12.154Z,19.85
2017-10-19T08:36:38.641Z,20.90
2017-10-19T08:39:04.916Z,18.42
2017-10-19T08:41:31.131Z,16.25
2017-10-19T08:43:57.652Z,17.45
2017-10-19T08:46:24.583Z,18.17
2017-10-19T08:48:51.526Z,18.90
2017-10-19T08:51:18.687Z,19.48
2017-10-19T08:53:45.101Z,18.98
2017-10-19T08:56:11.816Z,18.60
2017-10-19T08:58:38.185Z,18.12
2017-10-19T09:01:04.909Z,17.10
2017-10-19T09:03:31.518Z,13.23
2017-10-19T09:05:59.342Z,16.00
2017-10-19T09:08:25.848Z,16.65
2017-10-19T09:10:52.677Z,17.15
2017-10-19T09:13:19.538Z,17.05
2017-10-19T09:15:46.305Z,14.55
2017-10-19T09:18:13.392Z,17.45
2017-10-19T09:20:40.973Z,16.75
2017-10-19T09:23:08.425Z,17.98
2017-10-19T09:25:35.731Z,18.08
2017-10-19T09:28:02.018Z,17.50
2017-10-19T09:30:28.491Z,16.95
2017-10-19T09:32:54.926Z,16.45
2017-10-19T09:35:22.442Z,17.12
2017-10-19T09:37:48.656Z,17.90
2017-10-19T09:40:15.021Z,17.77
2017-10-19T09:42:41.260Z,15.73
2017-10-19T09:45:08.402Z,16.08
2017-10-19T09:47:35.105Z,17.23
2017-10-19T09:50:01.953Z,16.98
2017-10-19T09:52:28.534Z,17.12
2017-10-19T09:54:55.528Z,16.73
2017-10-19T09:57:21.790Z,15.75
2017-10-19T09:59:48.196Z,16.00
2017-10-19T10:02:15.629Z,17.20
2017-10-19T10:04:44.525Z,17.23
2017-10-19T10:07:11.428Z,17.50
2017-10-19T10:09:37.643Z,17.07
2017-10-19T10:12:04.180Z,19.02
2017-10-19T10:14:31.208Z,16.07
2017-10-19T10:16:57.471Z,17.50
2017-10-19T10:19:24.242Z,20.13
2017-10-19T10:21:51.604Z,18.50
2017-10-19T10:24:18.659Z,19.10
2017-10-19T10:26:45.514Z,19.90
2017-10-19T10:29:12.367Z,21.00
2017-10-19T10:31:38.576Z,19.47
2017-10-19T10:34:04.895Z,20.10
2017-10-19T10:36:32.801Z,19.55
2017-10-19T10:38:59.049Z,22.00
2017-10-19T10:41:26.362Z,22.50
2017-10-19T10:43:52.883Z,21.60
2017-10-19T10:46:19.120Z,21.50
2017-10-19T10:48:45.374Z,22.23
2017-10-19T10:51:12.229Z,21.63
2017-10-19T10:53:38.628Z,22.33
2017-10-19T10:56:05.435Z,23.17
2017-10-19T10:58:32.964Z,22.70
2017-10-19T11:01:00.198Z,22.47
2017-10-19T11:03:26.451Z,25.10
2017-10-19T11:05:52.692Z,22.50
2017-10-19T11:08:20.110Z,25.57
2017-10-19T11:10:47.153Z,27.10
2017-10-19T11:13:20.811Z,26.63
2017-10-19T11:15:47.880Z,24.93
2017-10-19T11:18:14.381Z,23.63
2017-10-19T11:20:41.399Z,25.93
2017-10-19T11:23:08.049Z,25.37
2017-10-19T11:25:35.709Z,24.70
2017-10-19T11:28:02.059Z,23.50
2017-10-19T11:30:29.559Z,24.43
2017-10-19T11:32:56.423Z,22.93
2017-10-19T11:35:22.881Z,23.50
2017-10-19T11:37:49.887Z,24.90
2017-10-19T11:40:16.212Z,22.10
2017-10-19T11:42:42.452Z,24.87
2017-10-19T11:45:09.120Z,21.67
2017-10-19T11:47:36.784Z,25.00
2017-10-19T11:50:03.520Z,23.70
2017-10-19T11:52:29.981Z,23.70
2017-10-19T11:54:57.317Z,23.83
2017-10-19T11:57:24.386Z,24.70
2017-10-19T11:59:51.743Z,23.10
2017-10-19T12:02:18.320Z,25.53
2017-10-19T12:04:45.588Z,23.90
2017-10-19T12:07:13.618Z,23.33
2017-10-19T12:09:40.748Z,24.87
2017-10-19T12:12:07.011Z,21.70
2017-10-19T12:14:33.391Z,24.57
2017-10-19T12:17:00.721Z,24.47
2017-10-19T12:19:27.947Z,23.60
2017-10-19T12:21:54.896Z,24.23
2017-10-19T12:24:21.097Z,24.43
2017-10-19T12:26:47.332Z,23.47
2017-10-19T12:29:14.124Z,23.67
2017-10-19T12:31:40.711Z,24.03
2017-10-19T12:34:07.751Z,24.73
2017-10-19T12:36:34.263Z,23.60
2017-10-19T12:39:01.272Z,25.50
2017-10-19T12:41:27.504Z,28.23
2017-10-19T12:43:53.835Z,24.53
2017-10-19T12:46:20.484Z,25.30
2017-10-19T12:48:46.731Z,24.07
2017-10-19T13:01:00.688Z,24.10
2017-10-19T13:03:27.183Z,24.80
2017-10-19T13:05:54.222Z,25.50
2017-10-19T13:08:21.365Z,25.90
2017-10-19T13:10:48.362Z,26.73
2017-10-19T13:13:15.049Z,25.33
2017-10-19T13:15:42.394Z,25.00
2017-10-19T13:18:08.584Z,28.00
2017-10-19T13:20:35.792Z,28.33
2017-10-19T13:23:02.028Z,28.07
2017-10-19T13:25:29.337Z,27.40
2017-10-19T13:27:55.736Z,25.53
2017-10-19T13:30:22.131Z,25.50
2017-10-19T13:32:48.844Z,24.17
2017-10-19T13:35:16.534Z,26.67
2017-10-19T13:37:43.506Z,24.67
2017-10-19T13:40:09.942Z,26.70
2017-10-19T13:42:36.768Z,30.47
2017-10-19T13:45:03.160Z,29.27
2017-10-19T13:47:30.495Z,30.90
2017-10-19T13:49:58.073Z,27.53
2017-10-19T13:52:24.840Z,28.80
2017-10-19T13:54:54.082Z,30.60
2017-10-19T13:57:20.294Z,31.20
2017-10-19T13:59:47.229Z,31.70
2017-10-19T14:02:26.390Z,29.23
2017-10-19T14:05:06.439Z,31.30
2017-10-19T14:07:43.200Z,29.63
2017-10-19T14:10:10.517Z,32.30
2017-10-19T14:12:37.866Z,32.37
2017-10-19T14:15:04.815Z,32.60
2017-10-19T14:17:32.311Z,30.80
2017-10-19T14:19:59.327Z,34.60
2017-10-19T14:22:26.993Z,34.87
2017-10-19T14:24:54.111Z,36.17
2017-10-19T14:27:20.361Z,33.70
2017-10-19T14:29:48.628Z,34.90
2017-10-19T14:32:16.163Z,32.17
2017-10-19T14:34:43.350Z,35.07
2017-10-19T14:37:10.518Z,33.67
2017-10-19T14:39:37.276Z,31.77
2017-10-19T14:42:03.535Z,35.83
2017-10-19T14:44:30.259Z,34.73
2017-10-19T14:46:57.785Z,32.37
2017-10-19T14:49:24.591Z,36.70
2017-10-19T14:51:51.647Z,32.50
2017-10-19T14:54:18.686Z,33.93
2017-10-19T14:56:46.639Z,32.60
2017-10-19T14:59:13.431Z,37.83
2017-10-19T15:01:40.192Z,36.33
2017-10-19T15:04:07.161Z,35.10
2017-10-19T15:06:33.531Z,36.83
2017-10-19T15:09:00.176Z,35.70
2017-10-19T15:11:27.208Z,41.80
2017-10-19T15:13:54.317Z,39.43
2017-10-19T15:16:21.587Z,37.40
2017-10-19T15:18:49.068Z,38.50
2017-10-19T15:21:17.338Z,38.17
2017-10-19T15:23:44.554Z,37.10
2017-10-19T15:26:11.142Z,38.50
2017-10-19T15:28:38.795Z,37.57
2017-10-19T15:31:05.088Z,39.63
2017-10-19T15:33:32.793Z,37.77
2017-10-19T15:36:00.193Z,40.37
2017-10-19T15:38:27.193Z,37.63
2017-10-19T15:40:53.421Z,38.53
2017-10-19T15:43:20.272Z,38.27
2017-10-19T15:45:47.017Z,36.50
2017-10-19T15:48:14.103Z,38.50
2017-10-19T15:50:53.237Z,36.87
2017-10-19T15:53:20.879Z,36.23
2017-10-19T15:55:47.678Z,40.63
2017-10-19T15:58:14.679Z,38.80
2017-10-19T16:00:41.330Z,37.07
2017-10-19T16:03:08.981Z,40.70
2017-10-19T16:05:35.724Z,33.57
2017-10-19T16:08:02.767Z,42.75
2017-10-19T16:10:30.208Z,44.17
2017-10-19T16:12:56.691Z,40.75
2017-10-19T16:15:22.934Z,40.17
2017-10-19T16:17:49.161Z,39.57
2017-10-19T16:20:15.916Z,41.10
2017-10-19T16:22:42.522Z,44.75
2017-10-19T16:25:10.860Z,41.72
2017-10-19T16:27:37.757Z,43.85
2017-10-19T16:30:05.422Z,44.30
2017-10-19T16:32:31.904Z,46.17
2017-10-19T16:34:59.328Z,40.05
2017-10-19T16:37:26.979Z,43.90
2017-10-19T16:39:54.017Z,45.63
2017-10-19T16:42:20.562Z,44.38
2017-10-19T16:44:48.031Z,45.30
2017-10-19T16:47:14.819Z,45.80
2017-10-19T16:49:42.203Z,50.55
2017-10-19T16:52:08.854Z,49.67
2017-10-19T16:54:36.468Z,48.45
2017-10-19T16:57:02.739Z,51.75
2017-10-19T16:59:29.565Z,49.35
2017-10-19T17:01:55.816Z,52.75
2017-10-19T17:04:22.023Z,49.65
2017-10-19T17:06:49.980Z,51.90
2017-10-19T17:09:17.971Z,48.47
2017-10-19T17:11:44.624Z,51.25
2017-10-19T17:14:12.828Z,47.25
2017-10-19T17:16:40.358Z,33.88
2017-10-19T17:19:06.699Z,35.88
2017-10-19T17:21:33.585Z,38.85
2017-10-19T17:23:59.865Z,37.13
2017-10-19T17:26:26.168Z,33.33
2017-10-19T17:28:53.356Z,41.75
2017-10-19T17:31:20.806Z,37.30
2017-10-19T17:33:47.156Z,47.13
2017-10-19T17:36:14.252Z,43.92
2017-10-19T17:38:40.532Z,52.78
2017-10-19T17:41:06.766Z,47.53
2017-10-19T17:43:33.151Z,60.95
2017-10-19T17:46:00.162Z,54.50
2017-10-19T17:48:26.423Z,49.65
2017-10-19T17:50:52.658Z,42.67
2017-10-19T17:53:18.903Z,35.78
2017-10-19T17:55:46.692Z,50.28
2017-10-19T17:58:13.338Z,46.60
2017-10-19T18:00:40.920Z,35.35
2017-10-19T18:03:08.958Z,44.40
2017-10-19T18:05:35.316Z,51.03
2017-10-19T18:08:02.609Z,50.12
2017-10-19T18:10:29.990Z,43.53
2017-10-19T18:12:57.723Z,50.80
2017-10-19T18:15:24.524Z,51.42
2017-10-19T18:17:51.515Z,43.47
2017-10-19T18:20:17.853Z,54.38
2017-10-19T18:22:44.256Z,56.35
2017-10-19T18:25:10.510Z,52.50
2017-10-19T18:27:36.862Z,43.22
2017-10-19T18:30:04.193Z,37.25
2017-10-19T18:32:30.495Z,33.83
2017-10-19T18:34:57.827Z,41.97
2017-10-19T18:37:24.606Z,40.53
2017-10-19T18:39:52.312Z,48.42
2017-10-19T18:42:18.636Z,61.90
2017-10-19T18:44:45.914Z,52.25
2017-10-19T18:47:13.489Z,35.83
2017-10-19T18:49:40.678Z,40.15
2017-10-19T18:52:06.883Z,40.80
2017-10-19T18:54:33.559Z,33.92
2017-10-19T18:57:00.574Z,28.85
2017-10-19T18:59:27.029Z,30.23
2017-10-19T19:01:54.328Z,32.75
2017-10-19T19:04:21.647Z,28.65
2017-10-19T19:06:49.023Z,29.98
2017-10-19T19:09:16.900Z,21.58
2017-10-19T19:11:44.255Z,22.75
2017-10-19T19:14:11.491Z,24.52
2017-10-19T19:16:38.707Z,21.60
2017-10-19T19:19:04.943Z,26.50
2017-10-19T19:21:32.042Z,25.85
2017-10-19T19:23:59.499Z,30.30
2017-10-19T19:26:25.976Z,28.67
2017-10-19T19:28:53.455Z,32.72
2017-10-19T19:31:20.471Z,38.53
2017-10-19T19:33:46.685Z,45.55
2017-10-19T19:36:12.942Z,45.58
2017-10-19T19:38:39.153Z,39.85
2017-10-19T19:41:05.524Z,42.20
2017-10-19T19:43:31.717Z,45.90
2017-10-19T19:45:58.202Z,41.83
2017-10-19T19:48:25.786Z,52.08
2017-10-19T19:50:53.536Z,36.70
2017-10-19T19:53:20.492Z,36.97
2017-10-19T19:55:46.739Z,46.90
2017-10-19T19:58:13.487Z,38.33
2017-10-19T20:00:39.934Z,47.85
2017-10-19T20:03:07.784Z,41.33
2017-10-19T20:05:34.028Z,44.80
2017-10-19T20:08:00.764Z,42.62
2017-10-19T20:10:27.114Z,45.20
2017-10-19T20:12:53.364Z,28.90
2017-10-19T20:15:21.688Z,32.85
2017-10-19T20:17:48.693Z,32.72
2017-10-19T20:20:15.844Z,31.70
2017-10-19T20:22:43.204Z,34.83
2017-10-19T20:25:10.976Z,35.17
2017-10-19T20:27:39.489Z,30.20
2017-10-19T20:30:07.138Z,37.13
2017-10-19T20:32:33.904Z,32.22
2017-10-19T20:35:00.121Z,33.55
2017-10-19T20:37:26.352Z,23.40
2017-10-19T20:39:52.586Z,26.33
2017-10-19T20:42:19.448Z,31.48
2017-10-19T20:44:45.700Z,32.75
2017-10-19T20:47:12.639Z,32.13
2017-10-19T20:49:40.232Z,26.05
2017-10-19T20:52:06.699Z,35.67
2017-10-19T20:54:32.946Z,44.33
2017-10-19T20:57:00.582Z,44.70
2017-10-19T20:59:26.765Z,34.35
2017-10-19T21:01:52.993Z,44.10
2017-10-19T21:04:19.199Z,34.45
2017-10-19T21:06:46.990Z,38.30
2017-10-19T21:09:14.361Z,45.28
2017-10-19T21:11:42.139Z,35.63
2017-10-19T21:14:09.822Z,34.55
2017-10-19T21:16:36.067Z,29.08
2017-10-19T21:19:02.830Z,27.35
2017-10-19T21:21:30.347Z,27.48
2017-10-19T21:23:56.872Z,22.45
2017-10-19T21:26:24.633Z,23.38
2017-10-19T21:28:51.449Z,28.27
2017-10-19T21:31:17.664Z,28.65
2017-10-19T21:33:44.038Z,27.10
2017-10-19T21:36:11.558Z,27.67
2017-10-19T21:38:37.770Z,25.70
2017-10-19T21:41:04.986Z,24.48
2017-10-19T21:43:31.183Z,31.45
2017-10-19T21:45:58.120Z,23.48
2017-10-19T21:48:24.514Z,29.45
2017-10-19T21:50:51.563Z,34.65
2017-10-19T21:53:18.519Z,36.72
2017-10-19T21:55:45.271Z,28.27
2017-10-19T21:58:11.485Z,25.90
2017-10-19T22:00:38.323Z,23.38
2017-10-19T22:03:05.301Z,28.35
2017-10-19T22:05:31.531Z,19.58
2017-10-19T22:07:57.771Z,24.33
2017-10-19T22:10:24.623Z,30.42
2017-10-19T22:12:50.816Z,27.90
2017-10-19T22:15:17.627Z,32.13
2017-10-19T22:17:45.039Z,32.85
2017-10-19T22:20:11.234Z,27.80
2017-10-19T22:22:37.978Z,22.40
2017-10-19T22:25:04.188Z,32.58
2017-10-19T22:27:31.227Z,33.38
2017-10-19T22:29:58.505Z,32.47
2017-10-19T22:32:25.525Z,29.33
2017-10-19T22:34:52.520Z,34.75
2017-10-19T22:37:18.720Z,33.38
2017-10-19T22:39:44.924Z,29.55
2017-10-19T22:42:11.906Z,21.90
2017-10-19T22:44:38.119Z,30.20
2017-10-19T22:47:04.911Z,24.20
2017-10-19T22:49:31.716Z,26.70
2017-10-19T22:51:58.459Z,25.23
2017-10-19T22:54:24.668Z,23.85
2017-10-19T22:56:50.923Z,28.83
2017-10-19T22:59:17.944Z,24.83
2017-10-19T23:01:45.586Z,20.92
2017-10-19T23:04:12.998Z,21.35
2017-10-19T23:06:39.959Z,23.70
2017-10-19T23:09:06.240Z,17.67
2017-10-19T23:11:32.453Z,21.23
2017-10-19T23:13:58.794Z,18.25
2017-10-19T23:16:26.306Z,21.17
2017-10-19T23:18:52.732Z,20.35
2017-10-19T23:21:18.964Z,22.70
2017-10-19T23:23:45.456Z,18.77
2017-10-19T23:26:12.534Z,16.23
2017-10-19T23:28:38.751Z,23.73
2017-10-19T23:31:04.950Z,17.98
2017-10-19T23:33:31.133Z,19.55
2017-10-19T23:35:57.852Z,20.37
2017-10-19T23:38:24.831Z,18.67
2017-10-19T23:40:52.238Z,19.62
2017-10-19T23:43:19.217Z,14.38
2017-10-19T23:45:45.427Z,19.40
2017-10-19T23:48:11.608Z,16.58
2017-10-19T23:50:37.823Z,17.25
2017-10-19T23:53:04.756Z,20.02
2017-10-19T23:55:31.684Z,17.95
2017-10-19T23:57:59.323Z,17.20
